Time;durP1;ratioP1;P1;durP2;ratioP2;P2;SDS_P1;SDS_P2;PMS_P1;PMS_P2;Temp;Humidity;BMP_temperature;BMP_pressure;BME280_temperature;BME280_humidity;BME280_pressure;Samples;Min_cycle;Max_cycle;Signal;HPM_P1;HPM_P2
2023/08/10 00:02:01;;;;;;;6.60;2.60;;;;;;;14.40;100.00;99362.91;270085;1269;23693;-82
2023/08/10 00:08:03;;;;;;;5.90;3.10;;;;;;;14.39;100.00;99365.59;270853;1269;25279;-83
2023/08/10 00:14:04;;;;;;;8.40;3.90;;;;;;;14.39;100.00;99357.08;269863;1269;22595;-82
2023/08/10 00:20:10;;;;;;;16.20;5.60;;;;;;;14.38;100.00;99357.31;270856;1269;22528;-84
2023/08/10 00:26:11;;;;;;;9.40;4.60;;;;;;;14.37;100.00;99356.84;270021;1269;22503;-83
2023/08/10 00:32:14;;;;;;;11.90;4.70;;;;;;;14.33;100.00;99358.96;269622;1269;22613;-82
2023/08/10 00:38:16;;;;;;;13.20;4.90;;;;;;;14.31;100.00;99362.81;270021;1269;589706;-83
2023/08/10 00:44:17;;;;;;;11.40;5.10;;;;;;;14.28;100.00;99368.63;271581;1269;22256;-83
2023/08/10 00:50:19;;;;;;;15.50;6.40;;;;;;;14.26;100.00;99371.45;273121;1269;23998;-84
2023/08/10 00:56:21;;;;;;;14.70;6.00;;;;;;;14.24;100.00;99368.98;269520;1269;23852;-83
2023/08/10 01:02:23;;;;;;;11.70;5.00;;;;;;;14.21;100.00;99372.66;270576;1269;22222;-84
2023/08/10 01:09:10;;;;;;;12.60;5.70;;;;;;;14.19;100.00;99378.10;273192;1269;22495;-83
2023/08/10 01:15:40;;;;;;;16.20;5.90;;;;;;;14.18;100.00;99381.56;270665;1269;22633;-84
2023/08/10 01:21:56;;;;;;;16.60;6.20;;;;;;;14.16;100.00;99383.69;270551;1269;22522;-83
2023/08/10 01:27:58;;;;;;;15.10;6.90;;;;;;;14.15;100.00;99387.05;270700;1267;24049;-84
2023/08/10 01:34:00;;;;;;;16.50;7.20;;;;;;;14.13;100.00;99390.35;270371;1269;23699;-83
2023/08/10 01:40:06;;;;;;;17.70;7.70;;;;;;;14.12;100.00;99389.41;270409;1269;22298;-83
2023/08/10 01:46:10;;;;;;;12.40;6.00;;;;;;;14.11;100.00;99395.14;272133;1269;23188;-83
2023/08/10 01:52:13;;;;;;;16.70;8.00;;;;;;;14.09;100.00;99396.86;273144;1269;22612;-84
2023/08/10 01:58:15;;;;;;;12.00;7.70;;;;;;;14.07;100.00;99398.73;272770;1269;22350;-84
2023/08/10 02:04:17;;;;;;;16.90;7.50;;;;;;;14.03;100.00;99396.92;269667;1269;22524;-84
2023/08/10 02:10:20;;;;;;;14.00;7.00;;;;;;;14.00;100.00;99400.21;271137;1269;25305;-83
2023/08/10 02:16:21;;;;;;;11.50;6.80;;;;;;;14.00;100.00;99400.29;270525;1269;23022;-84
2023/08/10 02:22:23;;;;;;;14.30;7.20;;;;;;;13.98;100.00;99394.30;273115;1269;22304;-83
2023/08/10 02:28:25;;;;;;;8.20;6.40;;;;;;;13.96;100.00;99391.85;273069;1269;22258;-84
2023/08/10 02:34:27;;;;;;;8.60;5.60;;;;;;;13.94;100.00;99393.58;273236;1269;22434;-84
2023/08/10 02:40:28;;;;;;;9.90;6.10;;;;;;;13.91;100.00;99397.98;271585;1269;23182;-84
2023/08/10 02:46:30;;;;;;;8.30;6.20;;;;;;;13.91;100.00;99403.00;270608;1269;22508;-84
2023/08/10 02:52:32;;;;;;;12.40;6.50;;;;;;;13.88;100.00;99407.73;270428;1269;22529;-84
2023/08/10 02:58:34;;;;;;;11.80;6.80;;;;;;;13.85;100.00;99412.89;270482;1254;24314;-84
2023/08/10 03:04:35;;;;;;;10.80;7.30;;;;;;;13.81;100.00;99415.38;271288;1269;23014;-82
2023/08/10 03:10:37;;;;;;;12.50;7.90;;;;;;;13.79;100.00;99417.73;270685;1269;22519;-84
2023/08/10 03:16:40;;;;;;;11.40;8.10;;;;;;;13.76;100.00;99425.52;269618;1259;22548;-84
2023/08/10 03:22:45;;;;;;;15.30;9.10;;;;;;;13.64;100.00;99431.88;269992;1269;23430;-84
2023/08/10 03:28:47;;;;;;;12.30;9.10;;;;;;;13.60;100.00;99431.30;270480;1269;22566;-84
2023/08/10 03:34:49;;;;;;;14.90;10.60;;;;;;;13.59;100.00;99434.21;272277;1269;23344;-83
2023/08/10 03:40:51;;;;;;;14.00;10.00;;;;;;;13.56;100.00;99436.23;270357;1269;22422;-84
2023/08/10 03:46:53;;;;;;;17.60;11.00;;;;;;;13.45;100.00;99437.11;270046;1269;25418;-82
2023/08/10 03:52:55;;;;;;;15.10;10.50;;;;;;;13.48;100.00;99442.77;270279;1269;22631;-84
2023/08/10 03:58:57;;;;;;;15.80;9.90;;;;;;;13.52;100.00;99452.56;271102;1269;22534;-84
2023/08/10 04:05:04;;;;;;;23.10;12.70;;;;;;;13.56;100.00;99460.05;271569;1253;23295;-84
2023/08/10 04:11:05;;;;;;;27.60;15.70;;;;;;;13.56;100.00;99458.94;272082;1269;22476;-84
2023/08/10 04:17:07;;;;;;;24.30;15.30;;;;;;;13.58;100.00;99465.31;270403;1269;22537;-84
2023/08/10 04:23:09;;;;;;;28.70;15.70;;;;;;;13.60;100.00;99464.46;270480;1269;22517;-84
2023/08/10 04:29:10;;;;;;;25.50;17.70;;;;;;;13.60;100.00;99469.98;270886;1269;22551;-83
2023/08/10 04:35:12;;;;;;;23.10;17.30;;;;;;;13.55;100.00;99473.32;270109;1269;22547;-84
2023/08/10 04:41:14;;;;;;;28.00;17.20;;;;;;;13.51;100.00;99468.02;273332;1269;22189;-84
2023/08/10 04:47:16;;;;;;;25.50;16.10;;;;;;;13.50;100.00;99472.73;273268;1269;23235;-84
2023/08/10 04:53:18;;;;;;;26.50;17.20;;;;;;;13.51;100.00;99479.27;271665;1260;22375;-85
2023/08/10 04:59:19;;;;;;;30.30;19.70;;;;;;;13.53;100.00;99476.06;271566;1269;22385;-84
2023/08/10 05:05:21;;;;;;;31.50;19.70;;;;;;;13.54;100.00;99482.27;271411;1269;23196;-84
2023/08/10 05:11:23;;;;;;;30.20;19.70;;;;;;;13.52;100.00;99489.25;272015;1269;22202;-84
2023/08/10 05:17:24;;;;;;;25.90;16.50;;;;;;;13.60;100.00;99497.48;273224;1269;22388;-84
2023/08/10 05:23:26;;;;;;;22.90;16.20;;;;;;;13.66;100.00;99505.70;272055;1269;22663;-84
2023/08/10 05:29:28;;;;;;;26.40;17.10;;;;;;;13.68;100.00;99512.86;272369;1269;23466;-84
2023/08/10 05:35:31;;;;;;;26.80;17.30;;;;;;;13.71;100.00;99518.70;272977;1269;22636;-85
2023/08/10 05:41:33;;;;;;;22.80;17.90;;;;;;;13.71;100.00;99523.66;273115;1269;23887;-85
2023/08/10 05:47:35;;;;;;;23.60;17.60;;;;;;;13.69;100.00;99524.50;273269;1269;22383;-84
2023/08/10 05:53:37;;;;;;;28.60;17.90;;;;;;;13.71;100.00;99524.92;273332;1269;22473;-84
2023/08/10 05:59:39;;;;;;;24.00;17.60;;;;;;;13.77;100.00;99530.92;273247;1269;23192;-84
2023/08/10 06:05:42;;;;;;;23.70;17.40;;;;;;;13.83;100.00;99532.21;273273;1266;25338;-84
2023/08/10 06:11:44;;;;;;;21.00;15.80;;;;;;;13.88;100.00;99537.14;273264;1269;23730;-84
2023/08/10 06:17:45;;;;;;;19.60;15.20;;;;;;;13.96;100.00;99539.78;273236;1269;22374;-84
2023/08/10 06:23:47;;;;;;;21.00;15.10;;;;;;;14.09;100.00;99545.91;271665;1269;22408;-84
2023/08/10 06:29:49;;;;;;;21.70;15.00;;;;;;;14.11;100.00;99557.02;272853;1269;22332;-84
2023/08/10 06:35:51;;;;;;;23.00;15.60;;;;;;;14.10;100.00;99567.47;271708;1269;23557;-84
2023/08/10 06:41:53;;;;;;;21.10;15.10;;;;;;;14.06;100.00;99570.52;273191;1269;22331;-84
2023/08/10 06:47:55;;;;;;;20.90;14.80;;;;;;;14.09;100.00;99571.94;271306;1269;22186;-82
2023/08/10 06:53:57;;;;;;;21.40;15.10;;;;;;;14.26;100.00;99575.91;271309;1269;22358;-85
2023/08/10 06:59:59;;;;;;;18.60;13.70;;;;;;;14.49;100.00;99579.05;270025;1269;23689;-84
2023/08/10 07:06:00;;;;;;;19.40;13.50;;;;;;;14.83;100.00;99584.46;271298;1269;23825;-83
2023/08/10 07:12:03;;;;;;;17.90;12.40;;;;;;;15.03;100.00;99588.77;271196;1266;22171;-83
2023/08/10 07:18:05;;;;;;;16.60;12.80;;;;;;;15.13;100.00;99595.02;270287;1268;22503;-84
2023/08/10 07:24:07;;;;;;;21.60;14.60;;;;;;;15.31;100.00;99597.11;270959;1269;22530;-83
2023/08/10 07:30:10;;;;;;;17.50;11.60;;;;;;;15.50;100.00;99603.06;270100;1269;22606;-84
2023/08/10 07:36:12;;;;;;;19.30;12.60;;;;;;;15.58;100.00;99599.36;272596;1266;22532;-84
2023/08/10 07:42:13;;;;;;;17.60;11.90;;;;;;;15.73;100.00;99610.25;273262;1269;23298;-84
2023/08/10 07:48:21;;;;;;;14.80;10.50;;;;;;;15.86;100.00;99608.11;273425;1269;22191;-84
2023/08/10 07:54:23;;;;;;;15.70;10.20;;;;;;;15.91;100.00;99599.45;273021;1269;23497;-84
2023/08/10 08:00:25;;;;;;;11.60;8.60;;;;;;;16.10;100.00;99597.14;271057;1269;22566;-84
2023/08/10 08:06:26;;;;;;;16.10;9.80;;;;;;;16.35;100.00;99591.01;272028;1269;22539;-83
2023/08/10 08:12:28;;;;;;;17.00;10.90;;;;;;;16.63;100.00;99584.85;273305;1269;22148;-83
2023/08/10 08:18:49;;;;;;;17.30;10.50;;;;;;;17.11;100.00;99586.52;273544;1272;22801;-83
2023/08/10 08:24:52;;;;;;;18.20;10.40;;;;;;;17.55;100.00;99583.09;272066;1270;22390;-82
2023/08/10 08:30:54;;;;;;;10.80;7.20;;;;;;;17.85;100.00;99585.23;273220;1269;22189;-84
2023/08/10 08:36:56;;;;;;;9.30;5.70;;;;;;;18.16;100.00;99588.57;272690;1269;22190;-84
2023/08/10 08:42:58;;;;;;;13.10;6.30;;;;;;;18.24;100.00;99587.14;270848;1269;22572;-83
2023/08/10 08:49:03;;;;;;;9.60;5.80;;;;;;;18.13;100.00;99588.04;272428;1266;22195;-84
2023/08/10 08:55:05;;;;;;;10.10;5.40;;;;;;;18.18;100.00;99588.86;273012;1269;22435;-84
2023/08/10 09:01:07;;;;;;;8.60;4.80;;;;;;;18.20;97.93;99588.14;271909;1269;24231;-82
2023/08/10 09:07:09;;;;;;;7.00;5.50;;;;;;;18.20;96.65;99588.52;270031;1269;22797;-84
2023/08/10 09:13:15;;;;;;;5.20;3.20;;;;;;;18.43;96.64;99584.58;270192;1269;22515;-84
2023/08/10 09:19:17;;;;;;;6.40;5.10;;;;;;;18.55;95.58;99581.91;270382;1269;22465;-83
2023/08/10 09:25:20;;;;;;;8.00;4.30;;;;;;;18.88;95.64;99581.73;270596;1267;24205;-83
2023/08/10 09:31:24;;;;;;;7.70;5.60;;;;;;;19.34;94.03;99579.36;271190;1269;22372;-83
2023/08/10 09:37:26;;;;;;;8.00;5.90;;;;;;;19.72;92.50;99584.81;271776;1269;23147;-83
2023/08/10 09:43:29;;;;;;;5.90;4.10;;;;;;;20.21;89.84;99585.80;271252;1266;22470;-83
2023/08/10 09:49:31;;;;;;;9.10;4.70;;;;;;;20.00;88.08;99585.60;270585;1269;22172;-84
2023/08/10 09:55:33;;;;;;;6.50;3.20;;;;;;;19.73;87.28;99586.63;273126;1269;22410;-85
2023/08/10 10:01:35;;;;;;;7.70;4.00;;;;;;;19.62;87.99;99586.57;271969;1269;23350;-84
2023/08/10 10:07:38;;;;;;;6.10;4.30;;;;;;;19.53;87.96;99580.35;270488;1269;22558;-84
2023/08/10 10:13:40;;;;;;;6.20;4.60;;;;;;;20.16;84.55;99577.94;270625;1269;22569;-84
2023/08/10 10:19:50;;;;;;;6.70;4.60;;;;;;;20.64;81.65;99579.66;271671;1269;22549;-84
2023/08/10 10:26:03;;;;;;;8.30;4.40;;;;;;;21.47;82.51;99576.00;270746;1269;22731;-85
2023/08/10 10:32:25;;;;;;;5.00;3.70;;;;;;;22.14;80.27;99569.90;270599;1269;23112;-84
2023/08/10 10:38:27;;;;;;;4.20;3.70;;;;;;;22.56;78.21;99565.91;271191;1269;22555;-84
2023/08/10 10:45:01;;;;;;;5.20;4.20;;;;;;;23.05;78.71;99564.73;273167;1269;22373;-83
2023/08/10 10:51:04;;;;;;;7.50;4.20;;;;;;;23.39;77.12;99565.88;272939;1269;23073;-85
2023/08/10 10:57:06;;;;;;;6.00;3.80;;;;;;;23.23;74.85;99567.90;271082;1269;22230;-84
2023/08/10 11:03:09;;;;;;;5.20;3.30;;;;;;;22.42;74.75;99563.80;271515;1269;22757;-86
2023/08/10 11:09:13;;;;;;;4.80;3.50;;;;;;;21.83;74.43;99560.50;273062;1269;22409;-85
2023/08/10 11:15:36;;;;;;;6.20;3.80;;;;;;;21.39;74.24;99557.27;271627;1269;23776;-87
2023/08/10 11:21:56;;;;;;;5.10;3.60;;;;;;;20.97;74.23;99547.56;271479;1270;22541;-86
2023/08/10 11:27:58;;;;;;;4.70;3.50;;;;;;;20.78;74.93;99544.40;271849;1269;23305;-84
2023/08/10 11:34:00;;;;;;;5.20;3.50;;;;;;;20.88;74.77;99547.19;270383;1265;22607;-84
2023/08/10 11:40:13;;;;;;;5.90;3.30;;;;;;;21.31;74.23;99545.11;271653;1263;22359;-84
2023/08/10 11:46:18;;;;;;;5.00;2.90;;;;;;;21.86;73.00;99545.06;272999;1269;22571;-86
2023/08/10 11:52:31;;;;;;;4.00;2.50;;;;;;;21.92;71.34;99541.80;272782;1263;22368;-84
2023/08/10 11:58:33;;;;;;;4.60;3.20;;;;;;;21.55;70.54;99538.36;272957;1269;23194;-85
2023/08/10 12:04:35;;;;;;;4.10;2.70;;;;;;;21.41;69.77;99535.11;271887;1269;22550;-84
2023/08/10 12:10:39;;;;;;;5.70;3.30;;;;;;;21.52;70.45;99526.72;272282;1257;22659;-85
2023/08/10 12:16:41;;;;;;;4.80;3.20;;;;;;;21.41;70.29;99520.30;272854;1269;22651;-84
2023/08/10 12:22:43;;;;;;;4.60;3.40;;;;;;;21.27;68.96;99513.31;271941;1269;22576;-84
2023/08/10 12:28:47;;;;;;;4.60;3.00;;;;;;;21.14;68.21;99514.52;271478;1269;22552;-83
2023/08/10 12:34:51;;;;;;;4.10;2.50;;;;;;;21.13;67.56;99510.56;270694;1264;22402;-85
2023/08/10 12:41:09;;;;;;;3.20;2.60;;;;;;;21.03;67.21;99511.74;271756;1269;111087;-84
2023/08/10 12:47:10;;;;;;;3.50;2.30;;;;;;;20.86;67.73;99511.05;272961;1269;22517;-85
2023/08/10 12:53:12;;;;;;;4.80;2.90;;;;;;;20.86;68.08;99505.66;271677;1269;22379;-84
2023/08/10 12:59:49;;;;;;;4.10;3.00;;;;;;;20.82;67.24;99504.78;271608;1269;22321;-83
2023/08/10 13:06:12;;;;;;;3.70;2.90;;;;;;;20.75;66.44;99499.62;272641;1269;22378;-85
2023/08/10 13:12:13;;;;;;;3.40;2.60;;;;;;;20.73;66.19;99497.77;273215;1269;22197;-85
2023/08/10 13:18:15;;;;;;;3.40;2.50;;;;;;;20.62;65.08;99494.50;271551;1269;22200;-86
2023/08/10 13:24:17;;;;;;;3.70;2.40;;;;;;;20.60;64.52;99489.95;272510;1269;22537;-85
2023/08/10 13:30:21;;;;;;;4.20;2.40;;;;;;;20.47;64.54;99483.46;271779;1262;22996;-85
2023/08/10 13:36:23;;;;;;;3.60;2.20;;;;;;;20.27;65.18;99474.98;271517;1269;22398;-85
2023/08/10 13:42:25;;;;;;;4.00;2.70;;;;;;;20.10;65.41;99471.31;273111;1269;22182;-84
2023/08/10 13:48:27;;;;;;;3.20;2.30;;;;;;;20.00;66.09;99463.41;272061;1263;22229;-84
2023/08/10 13:54:29;;;;;;;3.90;2.00;;;;;;;19.95;65.39;99465.42;272915;1269;22421;-85
2023/08/10 14:00:30;;;;;;;5.80;2.60;;;;;;;19.96;65.31;99463.80;271161;1266;22998;-84
2023/08/10 14:06:32;;;;;;;3.30;2.50;;;;;;;20.06;65.72;99467.02;271543;1269;22484;-83
2023/08/10 14:12:34;;;;;;;4.10;2.70;;;;;;;20.04;64.78;99468.58;271275;1269;23494;-83
2023/08/10 14:18:36;;;;;;;5.00;3.40;;;;;;;20.10;63.91;99466.09;273290;1269;23255;-84
2023/08/10 14:24:38;;;;;;;4.60;2.30;;;;;;;20.23;64.05;99463.13;272473;1269;22206;-85
2023/08/10 14:30:39;;;;;;;3.20;2.00;;;;;;;20.35;65.97;99465.13;270344;1269;23886;-84
2023/08/10 14:36:42;;;;;;;3.50;2.40;;;;;;;20.33;65.22;99461.98;271433;1269;22551;-84
2023/08/10 14:42:43;;;;;;;4.00;2.80;;;;;;;20.27;64.55;99459.73;272276;1269;22188;-85
2023/08/10 14:48:45;;;;;;;3.90;2.50;;;;;;;20.27;63.72;99461.08;272225;1269;22658;-85
2023/08/10 14:54:47;;;;;;;3.50;2.30;;;;;;;20.23;63.56;99467.52;272650;1263;24253;-85
2023/08/10 15:00:56;;;;;;;3.60;2.20;;;;;;;20.19;64.33;99462.51;272239;1269;22538;-86
2023/08/10 15:07:00;;;;;;;4.40;2.20;;;;;;;20.13;63.96;99462.62;272739;1269;22485;-86
2023/08/10 15:13:03;;;;;;;3.40;2.50;;;;;;;20.08;63.56;99461.99;273065;1267;22194;-86
2023/08/10 15:19:05;;;;;;;3.70;2.30;;;;;;;20.07;63.07;99459.70;272871;1269;23483;-85
2023/08/10 15:25:08;;;;;;;3.70;2.10;;;;;;;19.99;62.30;99461.92;272452;1262;22420;-85
2023/08/10 15:31:10;;;;;;;2.90;2.10;;;;;;;19.92;63.16;99465.40;270460;1266;23466;-86
2023/08/10 15:37:11;;;;;;;3.40;2.20;;;;;;;19.79;62.93;99464.46;271663;1269;22535;-85
2023/08/10 15:43:13;;;;;;;4.30;2.40;;;;;;;19.67;62.88;99468.09;273293;1265;22958;-86
2023/08/10 15:49:16;;;;;;;3.60;2.10;;;;;;;19.51;63.64;99471.48;273361;1272;23387;-85
2023/08/10 15:55:17;;;;;;;6.00;2.70;;;;;;;19.35;64.72;99475.85;273080;1263;22228;-85
2023/08/10 16:01:21;;;;;;;3.50;2.20;;;;;;;19.13;64.56;99477.55;271341;1269;23310;-85
2023/08/10 16:07:23;;;;;;;3.40;2.40;;;;;;;18.93;64.91;99475.56;270087;1269;22222;-85
2023/08/10 16:13:25;;;;;;;4.40;2.30;;;;;;;18.82;65.06;99481.58;270509;1262;24388;-86
2023/08/10 16:19:28;;;;;;;3.00;2.30;;;;;;;18.76;65.21;99487.69;270591;1269;22560;-86
2023/08/10 16:25:30;;;;;;;3.90;2.60;;;;;;;18.72;65.70;99485.29;271439;1263;22540;-85
2023/08/10 16:31:31;;;;;;;4.00;2.30;;;;;;;18.70;66.46;99491.16;271304;1262;23025;-85
2023/08/10 16:37:33;;;;;;;3.00;2.10;;;;;;;18.68;66.08;99494.21;270683;1269;22622;-85
2023/08/10 16:43:35;;;;;;;3.20;2.00;;;;;;;18.67;66.05;99494.45;271260;1263;22456;-86
2023/08/10 16:49:37;;;;;;;3.60;2.30;;;;;;;18.69;66.40;99497.36;271871;1264;23716;-86
2023/08/10 16:55:39;;;;;;;4.70;2.40;;;;;;;18.68;66.56;99495.31;272965;1262;22381;-86
2023/08/10 17:01:41;;;;;;;6.40;2.40;;;;;;;18.65;66.87;99499.65;273077;1269;23283;-86
2023/08/10 17:07:43;;;;;;;10.80;2.80;;;;;;;18.60;67.02;99503.19;272702;1269;22386;-85
2023/08/10 17:13:45;;;;;;;5.40;3.00;;;;;;;18.53;67.34;99500.44;272525;1269;22318;-85
2023/08/10 17:19:46;;;;;;;7.40;2.40;;;;;;;18.48;67.81;99503.67;272361;1269;22544;-86
2023/08/10 17:25:50;;;;;;;5.90;2.50;;;;;;;18.40;68.12;99506.44;271461;1269;22326;-83
2023/08/10 17:31:52;;;;;;;5.10;2.30;;;;;;;18.29;68.53;99506.42;271867;1269;22552;-84
2023/08/10 17:37:54;;;;;;;4.00;2.80;;;;;;;18.22;69.07;99509.66;272054;1263;23199;-84
2023/08/10 17:43:57;;;;;;;8.40;3.20;;;;;;;18.15;70.19;99511.00;271766;1265;22460;-84
2023/08/10 17:49:59;;;;;;;5.60;3.00;;;;;;;18.05;71.30;99518.23;271896;1264;23663;-84
2023/08/10 17:56:02;;;;;;;6.40;2.80;;;;;;;17.87;72.16;99523.09;271977;1254;23144;-82
2023/08/10 18:02:05;;;;;;;7.50;2.90;;;;;;;17.65;73.22;99525.43;272076;1269;22392;-84
2023/08/10 18:08:07;;;;;;;9.30;3.50;;;;;;;17.41;73.84;99534.55;272074;1263;23484;-83
2023/08/10 18:14:10;;;;;;;5.20;3.70;;;;;;;17.17;75.23;99540.00;271968;1265;22366;-83
2023/08/10 18:20:11;;;;;;;12.20;3.80;;;;;;;16.98;76.27;99537.52;272046;1269;23195;-82
2023/08/10 18:26:13;;;;;;;7.40;3.60;;;;;;;16.80;77.30;99545.70;272050;1269;22391;-83
2023/08/10 18:32:14;;;;;;;8.10;3.90;;;;;;;16.60;79.27;99550.85;272039;1269;22393;-83
2023/08/10 18:38:17;;;;;;;12.40;4.40;;;;;;;16.38;80.25;99556.19;271937;1265;22329;-82
2023/08/10 18:44:22;;;;;;;8.00;4.50;;;;;;;16.23;80.89;99558.67;272270;1262;23084;-85
2023/08/10 18:50:23;;;;;;;7.40;4.30;;;;;;;16.08;81.38;99562.49;272493;1264;23485;-84
2023/08/10 18:56:26;;;;;;;7.10;4.50;;;;;;;15.90;82.06;99566.31;272430;1263;22315;-84
2023/08/10 19:02:28;;;;;;;6.90;4.00;;;;;;;15.72;83.77;99578.16;272744;1263;22335;-85
2023/08/10 19:08:30;;;;;;;16.70;8.60;;;;;;;15.54;84.80;99582.34;272863;1269;22843;-84
2023/08/10 19:14:45;;;;;;;18.80;9.00;;;;;;;15.41;84.86;99587.52;265255;1262;10001372;-85
2023/08/10 19:20:50;;;;;;;10.70;5.70;;;;;;;15.23;85.41;99590.23;272806;1262;22425;-84
2023/08/10 19:26:52;;;;;;;9.40;5.10;;;;;;;15.06;85.83;99599.17;272447;1263;22382;-84
2023/08/10 19:32:54;;;;;;;8.40;4.70;;;;;;;14.92;86.58;99605.73;272752;1262;22704;-85
2023/08/10 19:38:55;;;;;;;11.40;4.60;;;;;;;14.75;87.99;99605.45;272795;1262;22345;-85
2023/08/10 19:44:58;;;;;;;9.60;5.30;;;;;;;14.67;88.85;99605.26;272796;1262;22415;-84
2023/08/10 19:51:01;;;;;;;7.80;5.40;;;;;;;14.44;88.64;99608.61;272818;1261;22344;-84
2023/08/10 19:57:03;;;;;;;10.00;4.90;;;;;;;14.24;88.98;99615.23;272819;1259;23201;-85
2023/08/10 20:03:05;;;;;;;7.80;4.50;;;;;;;14.15;90.03;99621.48;272895;1263;22399;-85
2023/08/10 20:09:09;;;;;;;10.70;5.20;;;;;;;14.14;90.84;99620.29;272824;1263;22413;-85
2023/08/10 20:15:13;;;;;;;11.10;5.60;;;;;;;14.03;90.84;99621.23;272744;1263;22372;-84
2023/08/10 20:21:17;;;;;;;10.30;5.20;;;;;;;13.89;91.16;99620.65;272759;1262;22383;-85
2023/08/10 20:27:21;;;;;;;8.70;5.30;;;;;;;13.82;91.87;99621.69;272675;1266;22389;-84
2023/08/10 20:33:23;;;;;;;10.50;5.40;;;;;;;13.76;92.55;99620.85;272610;1262;23731;-85
2023/08/10 20:39:25;;;;;;;11.20;6.00;;;;;;;13.64;93.16;99619.41;272851;1263;22814;-85
2023/08/10 20:45:30;;;;;;;11.10;6.20;;;;;;;13.51;93.68;99620.70;272609;1264;23560;-85
2023/08/10 20:51:54;;;;;;;8.50;6.40;;;;;;;13.43;94.10;99615.15;272482;1265;22372;-85
2023/08/10 20:57:56;;;;;;;8.60;6.30;;;;;;;13.35;94.46;99611.99;271167;1270;22551;-85
2023/08/10 21:04:00;;;;;;;10.00;6.90;;;;;;;13.23;94.92;99614.46;271385;1270;25383;-84
2023/08/10 21:10:04;;;;;;;11.80;6.20;;;;;;;13.10;95.47;99616.85;270546;1269;25394;-85
2023/08/10 21:16:06;;;;;;;10.40;7.00;;;;;;;13.02;96.48;99617.77;271648;1264;26535;-84
2023/08/10 21:22:11;;;;;;;13.20;8.40;;;;;;;12.95;96.52;99622.55;271972;1270;22534;-85
2023/08/10 21:28:12;;;;;;;10.60;7.20;;;;;;;12.83;96.47;99629.23;270777;1268;23935;-85
2023/08/10 21:34:14;;;;;;;12.00;7.30;;;;;;;12.78;97.00;99630.27;270896;1269;23054;-85
2023/08/10 21:40:16;;;;;;;8.90;7.10;;;;;;;12.72;97.36;99627.67;270796;1266;22531;-84
2023/08/10 21:46:17;;;;;;;9.00;6.80;;;;;;;12.62;97.72;99627.94;272233;1269;22459;-85
2023/08/10 21:52:21;;;;;;;9.70;7.50;;;;;;;12.57;98.27;99626.23;271152;1266;22643;-85
2023/08/10 21:58:48;;;;;;;11.90;7.50;;;;;;;12.54;98.27;99624.77;271145;1269;22546;-85
2023/08/10 22:04:50;;;;;;;10.20;6.90;;;;;;;12.51;99.28;99623.88;272020;1266;23056;-85
2023/08/10 22:10:51;;;;;;;10.50;7.60;;;;;;;12.51;99.58;99626.46;271119;1269;24003;-85
2023/08/10 22:16:53;;;;;;;14.50;7.10;;;;;;;12.45;99.60;99624.65;271779;1269;22618;-85
2023/08/10 22:22:55;;;;;;;14.60;7.60;;;;;;;12.33;99.68;99623.02;270699;1265;23775;-85
2023/08/10 22:28:57;;;;;;;10.10;7.10;;;;;;;12.18;99.67;99621.37;271053;1265;23452;-85
2023/08/10 22:34:59;;;;;;;9.70;8.20;;;;;;;12.08;100.00;99628.67;271459;1269;25291;-85
2023/08/10 22:41:02;;;;;;;12.80;8.30;;;;;;;12.02;100.00;99629.91;271303;1269;22585;-85
2023/08/10 22:47:05;;;;;;;12.10;7.40;;;;;;;11.91;100.00;99631.16;270786;1269;23598;-85
2023/08/10 22:53:06;;;;;;;11.50;7.60;;;;;;;11.83;100.00;99630.63;270550;1269;22609;-85
2023/08/10 22:59:09;;;;;;;11.00;7.70;;;;;;;11.77;100.00;99629.27;270926;1269;23391;-85
2023/08/10 23:05:12;;;;;;;14.80;8.90;;;;;;;11.61;100.00;99640.44;271111;1269;22548;-84
2023/08/10 23:11:13;;;;;;;11.50;8.10;;;;;;;11.52;100.00;99646.77;270635;1269;24758;-85
2023/08/10 23:17:16;;;;;;;12.10;8.50;;;;;;;11.53;100.00;99645.05;272217;1269;22345;-84
2023/08/10 23:23:18;;;;;;;17.80;8.40;;;;;;;11.62;100.00;99642.95;271646;1269;22395;-85
2023/08/10 23:29:21;;;;;;;10.20;8.10;;;;;;;11.70;100.00;99642.25;272092;1269;22404;-84
2023/08/10 23:35:23;;;;;;;19.90;8.80;;;;;;;11.71;100.00;99636.41;273344;1258;22540;-85
2023/08/10 23:41:25;;;;;;;10.90;8.00;;;;;;;11.68;100.00;99635.95;272322;1269;22265;-84
2023/08/10 23:47:28;;;;;;;14.00;8.20;;;;;;;11.57;100.00;99634.33;271981;1268;23387;-84
2023/08/10 23:53:30;;;;;;;12.70;7.40;;;;;;;11.44;100.00;99633.70;273708;1272;22325;-84
2023/08/10 23:59:32;;;;;;;11.70;6.60;;;;;;;11.34;100.00;99633.20;272753;1266;23480;-84
